Time;durP1;ratioP1;P1;durP2;ratioP2;P2;SDS_P1;SDS_P2;PMS_P1;PMS_P2;Temp;Humidity;BMP_temperature;BMP_pressure;BME280_temperature;BME280_humidity;BME280_pressure;Samples;Min_cycle;Max_cycle;Signal;HPM_P1;HPM_P2
2023/06/28 00:00:30;;;;;;;5.47;3.60;;;15.00;99.90;;;;;;2036032;29;20035;-76
2023/06/28 00:01:30;;;;;;;5.47;3.40;;;15.10;99.90;;;;;;2036805;29;20520;-76
2023/06/28 00:02:35;;;;;;;5.10;3.40;;;15.00;99.90;;;;;;2037818;29;20020;-75
2023/06/28 00:03:36;;;;;;;6.07;3.60;;;15.10;99.90;;;;;;2038355;29;20427;-75
2023/06/28 00:04:37;;;;;;;5.68;3.72;;;15.10;99.90;;;;;;2037458;29;20754;-76
2023/06/28 00:05:38;;;;;;;6.60;3.80;;;15.10;99.90;;;;;;2035863;29;20086;-76
2023/06/28 00:06:38;;;;;;;6.85;3.50;;;15.10;99.90;;;;;;2040419;29;20087;-76
2023/06/28 00:07:39;;;;;;;5.18;3.53;;;15.20;99.90;;;;;;2042709;28;20039;-76
2023/06/28 00:08:40;;;;;;;7.57;3.60;;;15.20;99.90;;;;;;2043351;28;20063;-77
2023/06/28 00:09:41;;;;;;;7.15;3.97;;;15.20;99.90;;;;;;2036097;29;20043;-76
2023/06/28 00:10:41;;;;;;;6.90;3.60;;;15.20;99.90;;;;;;2043073;28;20062;-76
2023/06/28 00:11:44;;;;;;;6.40;3.60;;;15.30;99.90;;;;;;2043233;28;20143;-76
2023/06/28 00:12:44;;;;;;;5.40;3.15;;;15.30;99.90;;;;;;2040779;29;20039;-77
2023/06/28 00:13:45;;;;;;;6.70;3.58;;;15.30;99.90;;;;;;2039570;29;20031;-76
2023/06/28 00:14:45;;;;;;;7.30;3.58;;;15.40;99.90;;;;;;2043821;28;20080;-75
2023/06/28 00:15:46;;;;;;;8.18;3.80;;;15.40;99.90;;;;;;2038630;29;20063;-76
2023/06/28 00:16:46;;;;;;;5.72;3.60;;;15.40;99.90;;;;;;2030520;29;20052;-77
2023/06/28 00:17:47;;;;;;;6.75;3.60;;;15.40;99.90;;;;;;2035033;29;20059;-76
2023/06/28 00:18:48;;;;;;;4.57;3.70;;;15.40;99.90;;;;;;2037781;29;20031;-76
2023/06/28 00:19:48;;;;;;;4.55;3.60;;;15.40;99.90;;;;;;2037860;29;20102;-76
2023/06/28 00:20:49;;;;;;;5.70;3.53;;;15.40;99.90;;;;;;2037279;29;20028;-76
2023/06/28 00:21:49;;;;;;;5.50;3.63;;;15.40;99.90;;;;;;2035495;29;20031;-76
2023/06/28 00:22:50;;;;;;;6.47;3.65;;;15.40;99.90;;;;;;2028558;29;20040;-75
2023/06/28 00:23:50;;;;;;;5.63;3.50;;;15.40;99.90;;;;;;2035766;29;20531;-76
2023/06/28 00:24:51;;;;;;;6.30;3.60;;;15.40;99.90;;;;;;2037383;29;20051;-75
2023/06/28 00:25:51;;;;;;;6.07;3.75;;;15.40;99.90;;;;;;2034905;29;20039;-73
2023/06/28 00:26:52;;;;;;;6.85;3.80;;;15.40;99.90;;;;;;2035964;29;20079;-74
2023/06/28 00:27:52;;;;;;;9.13;3.80;;;15.40;99.90;;;;;;2040473;28;20444;-73
2023/06/28 00:28:53;;;;;;;7.43;3.83;;;15.40;99.90;;;;;;2040715;29;20020;-73
2023/06/28 00:29:55;;;;;;;4.63;3.30;;;15.40;99.90;;;;;;2038075;29;20590;-73
2023/06/28 00:30:56;;;;;;;7.85;3.72;;;15.40;99.90;;;;;;2039564;29;20050;-73
2023/06/28 00:31:58;;;;;;;5.07;3.40;;;15.40;99.90;;;;;;2040911;29;20027;-73
2023/06/28 00:32:58;;;;;;;5.57;3.30;;;15.40;99.90;;;;;;2039680;29;20094;-72
2023/06/28 00:33:59;;;;;;;5.60;3.40;;;15.40;99.90;;;;;;2038248;29;20146;-73
2023/06/28 00:34:59;;;;;;;5.95;3.38;;;15.40;99.90;;;;;;2039037;28;20474;-73
2023/06/28 00:36:00;;;;;;;5.60;3.28;;;15.40;99.90;;;;;;2038849;28;20032;-73
2023/06/28 00:37:00;;;;;;;5.78;3.70;;;15.40;99.90;;;;;;2039383;29;20064;-73
2023/06/28 00:38:02;;;;;;;7.25;3.38;;;15.30;99.90;;;;;;2039219;28;20431;-73
2023/06/28 00:39:03;;;;;;;5.20;3.33;;;15.30;99.90;;;;;;2035455;28;20720;-73
2023/06/28 00:40:06;;;;;;;3.78;3.28;;;15.30;99.90;;;;;;2038635;29;20050;-73
2023/06/28 00:41:06;;;;;;;4.72;3.30;;;15.30;99.90;;;;;;2040103;29;20050;-72
2023/06/28 00:42:07;;;;;;;5.22;3.45;;;15.30;99.90;;;;;;2048989;28;20035;-74
2023/06/28 00:43:08;;;;;;;6.53;3.65;;;15.30;99.90;;;;;;2045566;28;20113;-74
2023/06/28 00:44:08;;;;;;;6.35;3.67;;;15.20;99.90;;;;;;2044230;28;20096;-72
2023/06/28 00:45:14;;;;;;;5.75;3.40;;;15.20;99.90;;;;;;2035713;29;20462;-74
2023/06/28 00:46:14;;;;;;;6.85;3.30;;;15.20;99.90;;;;;;2036798;29;20031;-74
2023/06/28 00:47:15;;;;;;;6.85;3.50;;;15.20;99.90;;;;;;2047341;28;20032;-74
2023/06/28 00:48:17;;;;;;;7.07;3.63;;;15.10;99.90;;;;;;2044977;28;20047;-74
2023/06/28 00:49:18;;;;;;;8.02;3.60;;;15.10;99.90;;;;;;2039694;29;20031;-73
2023/06/28 00:50:18;;;;;;;4.18;3.50;;;15.10;99.90;;;;;;2041749;28;20094;-73
2023/06/28 00:51:19;;;;;;;7.25;3.50;;;15.10;99.90;;;;;;2035402;29;20082;-73
2023/06/28 00:52:20;;;;;;;5.25;3.50;;;15.00;99.90;;;;;;2039241;28;20122;-73
2023/06/28 00:53:21;;;;;;;4.93;3.40;;;15.00;99.90;;;;;;2040584;29;20027;-73
2023/06/28 00:54:22;;;;;;;6.63;3.65;;;15.00;99.90;;;;;;2035855;28;20035;-73
2023/06/28 00:55:23;;;;;;;4.80;3.50;;;14.90;99.90;;;;;;2044467;28;20051;-74
2023/06/28 00:56:24;;;;;;;4.78;3.47;;;15.00;99.90;;;;;;2045724;28;20467;-72
2023/06/28 00:57:25;;;;;;;6.40;3.80;;;14.90;99.90;;;;;;2048643;28;20027;-74
2023/06/28 00:58:26;;;;;;;7.43;3.72;;;14.90;99.90;;;;;;2035724;29;20388;-73
2023/06/28 00:59:27;;;;;;;5.40;3.70;;;14.90;99.90;;;;;;2036011;29;20042;-72
2023/06/28 01:00:27;;;;;;;6.07;3.67;;;14.90;99.90;;;;;;2043762;28;20503;-73
2023/06/28 01:01:28;;;;;;;7.28;4.13;;;14.90;99.90;;;;;;2030057;29;20039;-72
2023/06/28 01:02:30;;;;;;;6.72;3.90;;;14.80;99.90;;;;;;2029805;28;20035;-73
2023/06/28 01:03:31;;;;;;;6.75;3.65;;;14.80;99.90;;;;;;2043141;28;20045;-73
2023/06/28 01:04:33;;;;;;;6.35;3.95;;;14.80;99.90;;;;;;2034392;28;20127;-73
2023/06/28 01:05:34;;;;;;;6.07;3.95;;;14.80;99.90;;;;;;2037870;28;20031;-72
2023/06/28 01:06:37;;;;;;;6.25;3.85;;;14.80;99.90;;;;;;2036423;29;20118;-72
2023/06/28 01:07:38;;;;;;;6.38;3.40;;;14.80;99.90;;;;;;2032913;29;20020;-74
2023/06/28 01:08:40;;;;;;;7.40;3.83;;;14.80;99.90;;;;;;2031400;29;20035;-74
2023/06/28 01:09:41;;;;;;;4.97;3.80;;;14.70;99.90;;;;;;2035343;28;21044;-73
2023/06/28 01:10:43;;;;;;;6.70;3.78;;;14.70;99.90;;;;;;2034307;28;20036;-73
2023/06/28 01:11:43;;;;;;;8.50;3.80;;;14.70;99.90;;;;;;2026705;29;20036;-73
2023/06/28 01:12:47;;;;;;;5.82;3.70;;;14.70;99.90;;;;;;2026837;29;20057;-73
2023/06/28 01:13:47;;;;;;;6.55;3.83;;;14.70;99.90;;;;;;2036628;29;20047;-73
2023/06/28 01:14:48;;;;;;;7.95;3.72;;;14.70;99.90;;;;;;2045061;28;20023;-73
2023/06/28 01:15:49;;;;;;;5.03;3.72;;;14.70;99.90;;;;;;2045602;28;20721;-73
2023/06/28 01:16:54;;;;;;;10.40;3.90;;;14.70;99.90;;;;;;2045367;28;20426;-73
2023/06/28 01:17:55;;;;;;;6.15;3.72;;;14.70;99.90;;;;;;2037750;29;20036;-74
2023/06/28 01:18:56;;;;;;;6.82;3.97;;;14.70;99.90;;;;;;2040025;29;20036;-74
2023/06/28 01:19:56;;;;;;;5.72;3.60;;;14.70;99.90;;;;;;2034777;29;20086;-73
2023/06/28 01:20:57;;;;;;;7.35;3.58;;;14.70;99.90;;;;;;2038975;29;20118;-74
2023/06/28 01:22:02;;;;;;;6.40;3.47;;;14.70;99.90;;;;;;2039434;29;20478;-74
2023/06/28 01:23:03;;;;;;;5.32;3.80;;;14.70;99.90;;;;;;2046385;28;20023;-73
2023/06/28 01:24:04;;;;;;;6.78;3.47;;;14.70;99.90;;;;;;2044653;28;20446;-73
2023/06/28 01:25:06;;;;;;;7.97;3.70;;;14.70;99.90;;;;;;2040179;29;20075;-74
2023/06/28 01:26:09;;;;;;;4.47;3.50;;;14.60;99.90;;;;;;2046133;28;20663;-77
2023/06/28 01:27:14;;;;;;;4.57;3.33;;;14.60;99.90;;;;;;2048845;28;20066;-73
2023/06/28 01:28:14;;;;;;;5.78;3.45;;;14.60;99.90;;;;;;2049724;28;20078;-75
2023/06/28 01:29:15;;;;;;;6.18;3.50;;;14.70;99.90;;;;;;2045402;28;20035;-73
2023/06/28 01:30:17;;;;;;;7.25;3.78;;;14.70;99.90;;;;;;2044789;29;20035;-74
2023/06/28 01:31:18;;;;;;;7.15;3.45;;;14.70;99.90;;;;;;2035218;29;20086;-74
2023/06/28 01:32:19;;;;;;;8.70;3.65;;;14.70;99.90;;;;;;2035811;29;20036;-72
2023/06/28 01:33:20;;;;;;;5.65;3.70;;;14.70;99.90;;;;;;2036186;29;20098;-72
2023/06/28 01:34:26;;;;;;;5.65;3.60;;;14.70;99.90;;;;;;2045099;28;20101;-72
2023/06/28 01:35:28;;;;;;;4.65;3.50;;;14.80;99.90;;;;;;2044566;28;20027;-71
2023/06/28 01:36:30;;;;;;;8.88;3.90;;;14.80;99.90;;;;;;2034426;29;20119;-72
2023/06/28 01:37:32;;;;;;;8.30;3.67;;;14.80;99.90;;;;;;2037165;29;20415;-71
2023/06/28 01:38:33;;;;;;;7.38;3.55;;;14.80;99.90;;;;;;2036630;29;20036;-72
2023/06/28 01:39:35;;;;;;;11.18;3.90;;;14.80;99.90;;;;;;2045659;28;20031;-72
2023/06/28 01:40:37;;;;;;;5.88;3.45;;;14.80;99.90;;;;;;2048599;28;20035;-74
2023/06/28 01:41:39;;;;;;;5.90;3.40;;;14.80;99.90;;;;;;2035306;29;20562;-73
2023/06/28 01:42:40;;;;;;;4.85;3.45;;;14.80;99.90;;;;;;2034841;28;20099;-73
2023/06/28 01:43:41;;;;;;;7.55;4.10;;;14.70;99.90;;;;;;2038190;29;20035;-72
2023/06/28 01:44:42;;;;;;;9.85;3.88;;;14.70;99.90;;;;;;2039913;29;20043;-72
2023/06/28 01:45:42;;;;;;;6.97;3.65;;;14.70;99.90;;;;;;2036578;29;20102;-73
2023/06/28 01:46:44;;;;;;;6.93;4.40;;;14.70;99.90;;;;;;2044637;28;20035;-73
2023/06/28 01:47:44;;;;;;;7.93;3.60;;;14.70;99.90;;;;;;2045256;28;20039;-72
2023/06/28 01:48:48;;;;;;;7.60;3.85;;;14.70;99.90;;;;;;2045227;28;20023;-73
2023/06/28 01:49:49;;;;;;;10.05;3.78;;;14.70;99.90;;;;;;2048485;28;20479;-73
2023/06/28 01:50:49;;;;;;;5.20;3.50;;;14.60;99.90;;;;;;2047738;28;20123;-73
2023/06/28 01:51:50;;;;;;;6.53;4.97;;;14.60;99.90;;;;;;2043493;28;20058;-72
2023/06/28 01:52:50;;;;;;;6.65;4.20;;;14.60;99.90;;;;;;2038956;28;20019;-72
2023/06/28 01:53:51;;;;;;;8.43;3.90;;;14.60;99.90;;;;;;2032036;29;20032;-73
2023/06/28 01:54:51;;;;;;;7.80;3.70;;;14.60;99.90;;;;;;2035321;29;20036;-73
2023/06/28 01:55:52;;;;;;;5.63;3.50;;;14.60;99.90;;;;;;2045961;28;20126;-73
2023/06/28 01:56:52;;;;;;;11.23;3.65;;;14.60;99.90;;;;;;2039111;29;20023;-73
2023/06/28 01:57:54;;;;;;;7.13;3.55;;;14.60;99.90;;;;;;2030342;29;20032;-72
2023/06/28 01:58:54;;;;;;;6.80;3.65;;;14.60;99.90;;;;;;2037564;29;20122;-72
2023/06/28 01:59:55;;;;;;;8.68;3.40;;;14.60;99.90;;;;;;2044313;29;20037;-73
2023/06/28 02:00:56;;;;;;;8.93;3.65;;;14.60;99.90;;;;;;2035468;29;20111;-73
2023/06/28 02:01:57;;;;;;;6.50;3.33;;;14.60;99.90;;;;;;2043876;28;20039;-73
2023/06/28 02:02:59;;;;;;;9.52;3.78;;;14.60;99.90;;;;;;2044241;28;20063;-73
2023/06/28 02:04:02;;;;;;;9.18;4.03;;;14.70;99.90;;;;;;2039331;28;20023;-73
2023/06/28 02:05:03;;;;;;;9.57;3.80;;;14.70;99.90;;;;;;2036237;29;21723;-72
2023/06/28 02:06:04;;;;;;;7.07;3.80;;;14.70;99.90;;;;;;2036760;29;20039;-72
2023/06/28 02:07:05;;;;;;;7.32;3.70;;;14.70;99.90;;;;;;2036220;29;20043;-72
2023/06/28 02:08:05;;;;;;;8.43;3.60;;;14.70;99.90;;;;;;2049841;28;20122;-72
2023/06/28 02:09:06;;;;;;;7.00;3.80;;;14.70;99.90;;;;;;2046711;28;20019;-73
2023/06/28 02:10:08;;;;;;;7.80;3.65;;;14.70;99.90;;;;;;2046710;28;20062;-72
2023/06/28 02:11:09;;;;;;;10.93;4.30;;;14.70;99.90;;;;;;2044434;28;20172;-73
2023/06/28 02:12:09;;;;;;;7.82;3.50;;;14.70;99.90;;;;;;2036427;29;20562;-73
2023/06/28 02:13:10;;;;;;;7.95;3.50;;;14.70;99.90;;;;;;2040238;29;20039;-73
2023/06/28 02:14:11;;;;;;;6.63;3.65;;;14.70;99.90;;;;;;2038332;28;20042;-73
2023/06/28 02:15:12;;;;;;;7.25;3.47;;;14.70;99.90;;;;;;2037544;29;20055;-72
2023/06/28 02:16:13;;;;;;;9.18;3.72;;;14.80;99.90;;;;;;2029902;29;20476;-72
2023/06/28 02:17:14;;;;;;;8.50;3.72;;;14.80;99.90;;;;;;2037484;29;20110;-73
2023/06/28 02:18:16;;;;;;;9.07;3.50;;;14.80;99.90;;;;;;2040039;29;20039;-73
2023/06/28 02:19:18;;;;;;;9.35;3.40;;;14.80;99.90;;;;;;2046675;28;20027;-73
2023/06/28 02:20:21;;;;;;;8.27;3.80;;;14.80;99.90;;;;;;2038821;29;20027;-72
2023/06/28 02:21:21;;;;;;;8.10;3.63;;;14.80;99.90;;;;;;2038706;29;20035;-73
2023/06/28 02:22:24;;;;;;;5.18;3.20;;;14.80;99.90;;;;;;2041248;29;20537;-72
2023/06/28 02:23:25;;;;;;;7.35;3.63;;;14.80;99.90;;;;;;2043070;28;20027;-73
2023/06/28 02:24:26;;;;;;;12.63;3.83;;;14.80;99.90;;;;;;2048870;28;20066;-73
2023/06/28 02:25:26;;;;;;;9.38;3.35;;;14.80;99.90;;;;;;2045472;28;20034;-73
2023/06/28 02:26:29;;;;;;;8.93;3.63;;;14.80;99.90;;;;;;2044978;28;20035;-73
2023/06/28 02:27:31;;;;;;;7.97;3.50;;;14.80;99.90;;;;;;2037882;28;20075;-73
2023/06/28 02:28:31;;;;;;;6.68;3.60;;;14.80;99.90;;;;;;2036702;29;20027;-73
2023/06/28 02:29:32;;;;;;;6.72;3.65;;;14.80;99.90;;;;;;2039154;29;20028;-73
2023/06/28 02:30:32;;;;;;;9.70;3.53;;;14.80;99.90;;;;;;2035175;29;20035;-74
2023/06/28 02:31:33;;;;;;;9.15;3.83;;;14.80;99.90;;;;;;2034220;29;20031;-73
2023/06/28 02:32:33;;;;;;;7.72;3.90;;;14.80;99.90;;;;;;2036872;29;20211;-73
2023/06/28 02:33:34;;;;;;;8.05;3.72;;;14.80;99.90;;;;;;2044469;28;20557;-72
2023/06/28 02:34:35;;;;;;;6.38;3.58;;;14.80;99.90;;;;;;2037463;29;20040;-73
2023/06/28 02:35:35;;;;;;;6.35;3.30;;;14.80;99.90;;;;;;2037271;29;20640;-73
2023/06/28 02:36:37;;;;;;;9.43;3.45;;;14.80;99.90;;;;;;2048246;28;20033;-72
2023/06/28 02:37:37;;;;;;;8.57;3.60;;;14.80;99.90;;;;;;2038619;29;20403;-73
2023/06/28 02:38:38;;;;;;;7.80;3.60;;;14.80;99.90;;;;;;2036050;29;20043;-73
2023/06/28 02:39:39;;;;;;;9.10;3.55;;;14.80;99.90;;;;;;2046147;28;20023;-73
2023/06/28 02:40:41;;;;;;;7.18;3.40;;;14.80;99.90;;;;;;2038796;29;20038;-73
2023/06/28 02:41:42;;;;;;;6.72;3.42;;;14.80;99.90;;;;;;2040453;29;20092;-72
2023/06/28 02:42:43;;;;;;;8.18;3.42;;;14.80;99.90;;;;;;2035669;28;20032;-73
2023/06/28 02:43:43;;;;;;;7.20;3.38;;;14.80;99.90;;;;;;2042027;28;20039;-72
2023/06/28 02:44:44;;;;;;;5.07;3.35;;;14.80;99.90;;;;;;2044147;29;20046;-72
2023/06/28 02:45:45;;;;;;;5.95;3.25;;;14.80;99.90;;;;;;2036044;29;20054;-73
2023/06/28 02:46:46;;;;;;;7.25;3.60;;;14.80;99.90;;;;;;2026956;29;20540;-72
2023/06/28 02:47:46;;;;;;;6.03;3.70;;;14.80;99.90;;;;;;2038704;28;20411;-72
2023/06/28 02:48:48;;;;;;;8.52;3.53;;;14.80;99.90;;;;;;2026433;29;20171;-73
2023/06/28 02:49:49;;;;;;;6.68;3.90;;;14.80;99.90;;;;;;2028559;29;20407;-72
2023/06/28 02:50:50;;;;;;;8.10;3.55;;;14.80;99.90;;;;;;2043512;28;20414;-72
2023/06/28 02:51:51;;;;;;;7.57;3.45;;;14.80;99.90;;;;;;2045732;28;20102;-72
2023/06/28 02:52:51;;;;;;;7.05;3.58;;;14.80;99.90;;;;;;2044858;28;20490;-74
2023/06/28 02:53:52;;;;;;;7.03;3.50;;;14.70;99.90;;;;;;2031333;29;20594;-73
2023/06/28 02:54:53;;;;;;;7.72;3.67;;;14.70;99.90;;;;;;2039651;29;20036;-73
2023/06/28 02:55:53;;;;;;;8.70;4.00;;;14.70;99.90;;;;;;2048333;28;20402;-73
2023/06/28 02:57:08;;;;;;;11.63;4.13;;;14.70;99.90;;;;;;2038669;28;20035;-73
2023/06/28 02:58:26;;;;;;;6.72;3.63;;;14.70;99.90;;;;;;2026129;29;20036;-72
2023/06/28 02:59:27;;;;;;;7.40;3.60;;;14.70;99.90;;;;;;2040533;29;20027;-73
2023/06/28 03:00:30;;;;;;;11.30;3.90;;;14.60;99.90;;;;;;2039055;28;20086;-73
2023/06/28 03:01:30;;;;;;;7.32;3.70;;;14.60;99.90;;;;;;2044345;28;20075;-73
2023/06/28 03:02:31;;;;;;;8.05;3.80;;;14.60;99.90;;;;;;2038767;29;20087;-73
2023/06/28 03:03:33;;;;;;;8.93;3.80;;;14.60;99.90;;;;;;2038771;29;20103;-73
2023/06/28 03:04:39;;;;;;;9.05;3.80;;;14.70;99.90;;;;;;2045182;28;20035;-73
2023/06/28 03:05:41;;;;;;;9.50;3.85;;;14.60;99.90;;;;;;2045658;28;20038;-74
2023/06/28 03:06:48;;;;;;;9.82;3.80;;;14.60;99.90;;;;;;2045460;28;20098;-73
2023/06/28 03:07:49;;;;;;;8.52;3.90;;;14.60;99.90;;;;;;2045124;28;20031;-73
2023/06/28 03:08:51;;;;;;;7.70;3.70;;;14.60;99.90;;;;;;2040164;28;20784;-73
2023/06/28 03:09:51;;;;;;;8.60;3.78;;;14.60;99.90;;;;;;2035262;29;20068;-73
2023/06/28 03:10:52;;;;;;;5.75;3.65;;;14.60;99.90;;;;;;2037028;28;20464;-72
2023/06/28 03:11:53;;;;;;;8.90;4.00;;;14.60;99.90;;;;;;2048284;28;20114;-72
2023/06/28 03:12:53;;;;;;;8.27;3.90;;;14.60;99.90;;;;;;2026422;29;20091;-73
2023/06/28 03:13:54;;;;;;;7.88;4.00;;;14.60;99.90;;;;;;2030894;29;20083;-73
2023/06/28 03:14:56;;;;;;;8.93;4.10;;;14.60;99.90;;;;;;2038415;29;20034;-74
2023/06/28 03:15:56;;;;;;;9.85;4.00;;;14.60;99.90;;;;;;2033068;29;20028;-73
2023/06/28 03:16:58;;;;;;;6.05;3.70;;;14.60;99.90;;;;;;2031176;29;20103;-73
2023/06/28 03:17:59;;;;;;;9.48;4.20;;;14.60;99.90;;;;;;2038737;29;20562;-73
2023/06/28 03:19:00;;;;;;;9.20;4.30;;;14.60;99.90;;;;;;2046501;28;20062;-72
2023/06/28 03:20:00;;;;;;;9.35;3.65;;;14.60;99.90;;;;;;2037461;29;20031;-73
2023/06/28 03:21:03;;;;;;;13.00;3.83;;;14.60;99.90;;;;;;2035940;29;20134;-73
2023/06/28 03:22:04;;;;;;;9.32;4.25;;;14.60;99.90;;;;;;2039863;29;20229;-72
2023/06/28 03:23:04;;;;;;;6.68;3.85;;;14.60;99.90;;;;;;2035782;29;20027;-72
2023/06/28 03:24:05;;;;;;;10.65;4.03;;;14.60;99.90;;;;;;2038117;29;20054;-72
2023/06/28 03:25:06;;;;;;;8.80;4.22;;;14.60;99.90;;;;;;2027540;29;20082;-74
2023/06/28 03:26:07;;;;;;;8.60;4.07;;;14.60;99.90;;;;;;2030430;29;20577;-72
2023/06/28 03:27:07;;;;;;;10.95;4.40;;;14.60;99.90;;;;;;2030619;29;20027;-73
2023/06/28 03:28:08;;;;;;;10.10;4.10;;;14.50;99.90;;;;;;2030714;29;20142;-73
2023/06/28 03:29:09;;;;;;;6.70;3.72;;;14.50;99.90;;;;;;2041716;29;20043;-73
2023/06/28 03:30:09;;;;;;;9.80;3.90;;;14.50;99.90;;;;;;2036543;29;20031;-73
2023/06/28 03:31:10;;;;;;;9.65;4.30;;;14.50;99.90;;;;;;2047946;28;20466;-73
2023/06/28 03:32:11;;;;;;;8.57;3.70;;;14.50;99.90;;;;;;2049476;28;20038;-73
2023/06/28 03:33:11;;;;;;;8.38;4.00;;;14.50;99.90;;;;;;2040299;28;20034;-73
2023/06/28 03:34:13;;;;;;;6.60;3.97;;;14.50;99.90;;;;;;2039377;28;20079;-73
2023/06/28 03:35:14;;;;;;;8.55;4.13;;;14.50;99.90;;;;;;2044603;28;20031;-73
2023/06/28 03:36:15;;;;;;;8.73;3.80;;;14.60;99.90;;;;;;2036321;29;20052;-73
2023/06/28 03:37:16;;;;;;;5.57;3.85;;;14.50;99.90;;;;;;2032994;29;20025;-73
2023/06/28 03:38:17;;;;;;;6.38;4.10;;;14.50;99.90;;;;;;2040955;29;20480;-73
2023/06/28 03:39:18;;;;;;;9.98;4.00;;;14.60;99.90;;;;;;2036048;28;20161;-73
2023/06/28 03:40:19;;;;;;;11.23;4.13;;;14.50;99.90;;;;;;2039941;28;20039;-74
2023/06/28 03:41:20;;;;;;;8.20;3.92;;;14.60;99.90;;;;;;2037041;29;20034;-74
2023/06/28 03:42:21;;;;;;;11.38;4.20;;;14.60;99.90;;;;;;2038732;29;20534;-73
2023/06/28 03:43:21;;;;;;;10.77;3.75;;;14.60;99.90;;;;;;2039007;28;20043;-74
2023/06/28 03:44:22;;;;;;;10.15;4.10;;;14.60;99.90;;;;;;2046379;28;20025;-74
2023/06/28 03:45:22;;;;;;;6.28;3.92;;;14.60;99.90;;;;;;2046277;28;20098;-74
2023/06/28 03:46:23;;;;;;;9.43;3.80;;;14.60;99.90;;;;;;2037111;28;20107;-73
2023/06/28 03:47:24;;;;;;;9.10;3.90;;;14.60;99.90;;;;;;2037279;29;20488;-74
2023/06/28 03:48:24;;;;;;;11.73;4.00;;;14.60;99.90;;;;;;2039459;29;20039;-74
2023/06/28 03:49:25;;;;;;;8.43;4.30;;;14.60;99.90;;;;;;2037922;29;20159;-74
2023/06/28 03:50:25;;;;;;;8.23;3.90;;;14.70;99.90;;;;;;2041421;29;20030;-74
2023/06/28 03:51:26;;;;;;;9.98;3.97;;;14.60;99.90;;;;;;2046701;28;20051;-74
2023/06/28 03:52:27;;;;;;;6.70;3.72;;;14.70;99.90;;;;;;2046588;28;20033;-74
2023/06/28 03:53:27;;;;;;;7.57;3.63;;;14.70;99.90;;;;;;2045430;28;20038;-75
2023/06/28 03:54:28;;;;;;;10.60;3.92;;;14.70;99.90;;;;;;2038029;29;20111;-73
2023/06/28 03:55:29;;;;;;;10.93;3.97;;;14.80;99.90;;;;;;2034906;29;20064;-75
2023/06/28 03:56:30;;;;;;;7.22;3.63;;;14.80;99.90;;;;;;2041027;29;20078;-73
2023/06/28 03:57:30;;;;;;;8.43;3.60;;;14.90;99.90;;;;;;2043069;28;20079;-72
2023/06/28 03:58:31;;;;;;;10.02;3.83;;;14.90;99.90;;;;;;2035700;29;20512;-73
2023/06/28 03:59:31;;;;;;;12.60;4.03;;;14.90;99.90;;;;;;2028302;29;20583;-73
2023/06/28 04:00:32;;;;;;;5.82;3.40;;;14.90;99.90;;;;;;2037062;28;20727;-73
2023/06/28 04:01:33;;;;;;;9.98;3.80;;;15.00;99.90;;;;;;2044173;28;20570;-73
2023/06/28 04:02:33;;;;;;;7.03;3.90;;;15.00;99.90;;;;;;2043263;28;20039;-73
2023/06/28 04:03:34;;;;;;;11.65;3.88;;;15.00;99.90;;;;;;2035726;29;20027;-72
2023/06/28 04:04:34;;;;;;;8.85;3.58;;;15.00;99.90;;;;;;2035069;29;20031;-74
2023/06/28 04:05:35;;;;;;;7.93;3.67;;;15.00;99.90;;;;;;2039187;29;20511;-73
2023/06/28 04:06:35;;;;;;;9.82;3.70;;;15.00;99.90;;;;;;2036374;29;20040;-73
2023/06/28 04:07:36;;;;;;;7.93;3.58;;;15.00;99.90;;;;;;2039870;29;20034;-73
2023/06/28 04:08:36;;;;;;;8.55;3.58;;;15.00;99.90;;;;;;2037174;29;20027;-73
2023/06/28 04:09:38;;;;;;;6.07;3.60;;;15.10;99.90;;;;;;2035891;29;20023;-74
2023/06/28 04:10:38;;;;;;;12.75;3.80;;;15.20;99.90;;;;;;2035097;29;20103;-74
2023/06/28 04:11:39;;;;;;;12.35;3.97;;;15.20;99.90;;;;;;2036114;29;20110;-73
2023/06/28 04:12:39;;;;;;;9.95;4.07;;;15.20;99.90;;;;;;2037919;29;20027;-72
2023/06/28 04:13:40;;;;;;;10.20;3.97;;;15.20;99.90;;;;;;2042967;28;20035;-72
2023/06/28 04:14:41;;;;;;;8.07;3.83;;;15.20;99.90;;;;;;2049382;28;20058;-75
2023/06/28 04:15:41;;;;;;;10.45;3.75;;;15.20;99.90;;;;;;2047643;28;20034;-73
2023/06/28 04:16:42;;;;;;;8.77;4.05;;;15.20;99.90;;;;;;2039872;28;20035;-72
2023/06/28 04:17:42;;;;;;;10.02;3.92;;;15.10;99.90;;;;;;2041373;29;20035;-74
2023/06/28 04:18:43;;;;;;;16.85;5.20;;;15.20;99.90;;;;;;2038487;29;20096;-74
2023/06/28 04:19:43;;;;;;;21.45;13.23;;;15.20;99.90;;;;;;2046191;28;20053;-74
2023/06/28 04:20:44;;;;;;;11.40;4.50;;;15.20;99.90;;;;;;2045968;28;20203;-73
2023/06/28 04:21:45;;;;;;;7.30;3.63;;;15.30;99.90;;;;;;2038980;28;20051;-73
2023/06/28 04:22:45;;;;;;;9.85;3.90;;;15.40;99.90;;;;;;2040490;29;20085;-73
2023/06/28 04:23:46;;;;;;;9.30;3.60;;;15.50;99.90;;;;;;2044692;28;20091;-73
2023/06/28 04:24:46;;;;;;;10.13;3.92;;;15.50;99.90;;;;;;2042514;28;20063;-73
2023/06/28 04:25:47;;;;;;;9.48;3.60;;;15.50;99.90;;;;;;2041577;29;20065;-74
2023/06/28 04:26:47;;;;;;;9.13;3.65;;;15.70;99.90;;;;;;2038858;28;20097;-73
2023/06/28 04:27:48;;;;;;;8.55;3.53;;;15.80;99.90;;;;;;2038257;28;20036;-74
2023/06/28 04:28:49;;;;;;;8.00;3.55;;;16.00;99.90;;;;;;2039062;28;20039;-74
2023/06/28 04:29:49;;;;;;;10.70;3.58;;;16.20;99.90;;;;;;2039153;28;20622;-74
2023/06/28 04:30:50;;;;;;;8.73;3.40;;;16.40;99.90;;;;;;2046230;28;20815;-74
2023/06/28 04:31:50;;;;;;;11.45;3.22;;;16.50;99.90;;;;;;2048354;28;20042;-75
2023/06/28 04:32:51;;;;;;;12.45;3.70;;;16.60;99.90;;;;;;2043168;28;20046;-74
2023/06/28 04:33:54;;;;;;;11.65;3.60;;;16.50;99.90;;;;;;2039667;28;20554;-74
2023/06/28 04:34:58;;;;;;;11.60;3.80;;;16.40;99.90;;;;;;2029403;29;20133;-74
2023/06/28 04:36:01;;;;;;;12.98;3.67;;;16.30;99.90;;;;;;2040559;29;20072;-74
2023/06/28 04:37:02;;;;;;;8.48;3.47;;;16.20;99.90;;;;;;2036197;29;20023;-76
2023/06/28 04:38:03;;;;;;;11.45;3.83;;;16.30;99.90;;;;;;2035570;29;20111;-75
2023/06/28 04:39:03;;;;;;;9.57;3.75;;;16.30;99.90;;;;;;2034804;29;20103;-76
2023/06/28 04:40:04;;;;;;;10.38;3.50;;;16.40;99.90;;;;;;2043654;28;20031;-75
2023/06/28 04:41:05;;;;;;;9.43;3.63;;;16.40;99.90;;;;;;2044254;28;20383;-75
2023/06/28 04:42:06;;;;;;;9.35;3.80;;;16.40;99.90;;;;;;2045837;28;20019;-75
2023/06/28 04:43:14;;;;;;;9.93;3.75;;;16.30;99.90;;;;;;2035628;29;20039;-75
2023/06/28 04:44:15;;;;;;;10.77;3.63;;;16.20;99.90;;;;;;2034261;28;20118;-74
2023/06/28 04:45:16;;;;;;;9.23;3.40;;;16.20;99.90;;;;;;2034925;29;20028;-75
2023/06/28 04:46:16;;;;;;;10.30;3.65;;;16.10;99.90;;;;;;2036845;29;20097;-74
2023/06/28 04:47:17;;;;;;;8.65;3.72;;;16.10;99.90;;;;;;2044461;28;20538;-74
2023/06/28 04:48:18;;;;;;;13.60;3.72;;;16.30;99.90;;;;;;2044312;28;20348;-75
2023/06/28 04:49:18;;;;;;;7.20;3.45;;;16.30;99.90;;;;;;2034423;29;20374;-74
2023/06/28 04:50:19;;;;;;;11.05;3.40;;;16.60;99.90;;;;;;2034989;29;20047;-74
2023/06/28 04:51:20;;;;;;;10.57;3.90;;;16.70;99.90;;;;;;2027155;29;20549;-75
2023/06/28 04:52:21;;;;;;;9.50;3.42;;;17.00;99.90;;;;;;2028445;29;20497;-75
2023/06/28 04:53:21;;;;;;;8.95;3.40;;;17.30;99.90;;;;;;2037354;29;20515;-76
2023/06/28 04:54:22;;;;;;;12.98;3.30;;;17.30;99.90;;;;;;2034836;29;20043;-76
2023/06/28 04:55:22;;;;;;;10.63;3.20;;;17.50;99.90;;;;;;2039186;29;20051;-74
2023/06/28 04:56:24;;;;;;;9.27;3.50;;;17.50;99.90;;;;;;2042807;29;20034;-74
2023/06/28 04:57:24;;;;;;;7.40;3.50;;;17.60;99.90;;;;;;2046020;28;20023;-75
2023/06/28 04:58:25;;;;;;;11.52;3.40;;;17.50;99.90;;;;;;2045802;28;20552;-75
2023/06/28 04:59:25;;;;;;;10.48;3.38;;;17.50;99.90;;;;;;2039127;28;20752;-75
2023/06/28 05:00:26;;;;;;;11.30;4.35;;;17.40;99.90;;;;;;2046127;28;20110;-76
2023/06/28 05:01:27;;;;;;;8.93;3.42;;;17.60;99.90;;;;;;2044749;29;20023;-76
2023/06/28 05:02:27;;;;;;;9.23;3.55;;;17.70;99.90;;;;;;2039538;29;20035;-75
2023/06/28 05:03:29;;;;;;;10.13;3.45;;;17.90;99.90;;;;;;2043686;28;20031;-74
2023/06/28 05:04:32;;;;;;;7.07;2.90;;;18.00;99.90;;;;;;2039258;29;20027;-75
2023/06/28 05:05:32;;;;;;;9.65;3.20;;;18.10;99.90;;;;;;2034155;29;20075;-75
2023/06/28 05:06:35;;;;;;;9.15;3.35;;;18.20;99.90;;;;;;2037853;28;20153;-76
2023/06/28 05:07:36;;;;;;;6.35;3.20;;;18.20;99.90;;;;;;2036781;28;20016;-75
2023/06/28 05:08:36;;;;;;;7.65;3.30;;;18.20;99.90;;;;;;2031915;29;20119;-75
2023/06/28 05:09:38;;;;;;;9.80;3.10;;;18.10;99.90;;;;;;2034219;28;20107;-75
2023/06/28 05:10:39;;;;;;;10.50;3.55;;;18.00;99.90;;;;;;2041080;28;20031;-75
2023/06/28 05:11:39;;;;;;;15.15;4.22;;;17.90;99.90;;;;;;2039671;29;20036;-75
2023/06/28 05:12:40;;;;;;;11.75;3.78;;;17.80;99.90;;;;;;2036459;29;20098;-76
2023/06/28 05:13:41;;;;;;;13.82;3.70;;;17.80;99.90;;;;;;2035326;29;20118;-82
2023/06/28 05:14:41;;;;;;;9.63;3.58;;;17.70;99.90;;;;;;2041028;29;20027;-77
2023/06/28 05:15:42;;;;;;;11.05;3.90;;;17.70;99.90;;;;;;2038502;28;20403;-78
2023/06/28 05:16:43;;;;;;;6.97;3.40;;;17.80;99.90;;;;;;2045672;28;20363;-78
2023/06/28 05:17:43;;;;;;;13.48;3.63;;;17.80;99.90;;;;;;2046058;28;20038;-77